sensor_id;sensor_type;location;lat;lon;timestamp;P1;durP1;ratioP1;P2;durP2;ratioP2
33160;SDS011;19522;45.656;11.302;2022-11-18T00:01:23;29.67;;;19.52;;
33160;SDS011;19522;45.656;11.302;2022-11-18T00:03:49;28.83;;;20.17;;
33160;SDS011;19522;45.656;11.302;2022-11-18T00:06:17;27.08;;;20.25;;
33160;SDS011;19522;45.656;11.302;2022-11-18T00:08:50;28.17;;;19.02;;
33160;SDS011;19522;45.656;11.302;2022-11-18T00:11:19;27.73;;;19.80;;
33160;SDS011;19522;45.656;11.302;2022-11-18T00:14:05;28.65;;;21.27;;
33160;SDS011;19522;45.656;11.302;2022-11-18T00:16:47;29.05;;;19.48;;
33160;SDS011;19522;45.656;11.302;2022-11-18T00:19:26;27.27;;;20.15;;
33160;SDS011;19522;45.656;11.302;2022-11-18T00:21:56;29.02;;;20.17;;
33160;SDS011;19522;45.656;11.302;2022-11-18T00:24:23;32.03;;;21.17;;
33160;SDS011;19522;45.656;11.302;2022-11-18T00:26:49;28.38;;;20.35;;
33160;SDS011;19522;45.656;11.302;2022-11-18T00:29:14;32.00;;;21.27;;
33160;SDS011;19522;45.656;11.302;2022-11-18T00:31:40;28.88;;;21.23;;
33160;SDS011;19522;45.656;11.302;2022-11-18T00:34:06;31.08;;;21.33;;
33160;SDS011;19522;45.656;11.302;2022-11-18T00:36:35;29.10;;;21.10;;
33160;SDS011;19522;45.656;11.302;2022-11-18T00:39:00;33.05;;;23.30;;
33160;SDS011;19522;45.656;11.302;2022-11-18T00:41:26;30.90;;;21.92;;
33160;SDS011;19522;45.656;11.302;2022-11-18T00:44:11;35.35;;;23.52;;
33160;SDS011;19522;45.656;11.302;2022-11-18T00:46:37;36.28;;;23.42;;
33160;SDS011;19522;45.656;11.302;2022-11-18T00:49:02;37.92;;;25.77;;
33160;SDS011;19522;45.656;11.302;2022-11-18T00:51:28;36.35;;;24.38;;
33160;SDS011;19522;45.656;11.302;2022-11-18T00:53:53;34.65;;;24.38;;
33160;SDS011;19522;45.656;11.302;2022-11-18T00:56:19;33.60;;;22.92;;
33160;SDS011;19522;45.656;11.302;2022-11-18T00:58:47;36.08;;;23.98;;
33160;SDS011;19522;45.656;11.302;2022-11-18T01:01:12;34.72;;;24.17;;
33160;SDS011;19522;45.656;11.302;2022-11-18T01:03:38;33.40;;;23.33;;
33160;SDS011;19522;45.656;11.302;2022-11-18T01:06:03;31.23;;;22.67;;
33160;SDS011;19522;45.656;11.302;2022-11-18T01:08:29;32.65;;;22.45;;
33160;SDS011;19522;45.656;11.302;2022-11-18T01:10:54;33.55;;;22.65;;
33160;SDS011;19522;45.656;11.302;2022-11-18T01:13:40;34.15;;;22.95;;
33160;SDS011;19522;45.656;11.302;2022-11-18T01:16:05;33.17;;;23.08;;
33160;SDS011;19522;45.656;11.302;2022-11-18T01:18:31;31.92;;;22.00;;
33160;SDS011;19522;45.656;11.302;2022-11-18T01:21:00;35.28;;;24.35;;
33160;SDS011;19522;45.656;11.302;2022-11-18T01:23:27;31.40;;;22.83;;
33160;SDS011;19522;45.656;11.302;2022-11-18T01:25:53;29.15;;;20.83;;
33160;SDS011;19522;45.656;11.302;2022-11-18T01:28:19;32.13;;;21.63;;
33160;SDS011;19522;45.656;11.302;2022-11-18T01:30:45;33.65;;;21.48;;
33160;SDS011;19522;45.656;11.302;2022-11-18T01:33:10;29.08;;;20.25;;
33160;SDS011;19522;45.656;11.302;2022-11-18T01:35:38;29.30;;;20.90;;
33160;SDS011;19522;45.656;11.302;2022-11-18T01:38:05;29.90;;;20.90;;
33160;SDS011;19522;45.656;11.302;2022-11-18T01:40:32;29.83;;;21.15;;
33160;SDS011;19522;45.656;11.302;2022-11-18T01:42:58;28.50;;;19.92;;
33160;SDS011;19522;45.656;11.302;2022-11-18T01:45:34;27.58;;;20.23;;
33160;SDS011;19522;45.656;11.302;2022-11-18T01:50:38;26.73;;;19.75;;
33160;SDS011;19522;45.656;11.302;2022-11-18T01:53:11;30.60;;;21.55;;
33160;SDS011;19522;45.656;11.302;2022-11-18T01:55:45;27.80;;;20.35;;
33160;SDS011;19522;45.656;11.302;2022-11-18T01:58:21;26.77;;;18.95;;
33160;SDS011;19522;45.656;11.302;2022-11-18T02:00:57;27.73;;;19.92;;
33160;SDS011;19522;45.656;11.302;2022-11-18T02:03:23;26.25;;;18.75;;
33160;SDS011;19522;45.656;11.302;2022-11-18T02:05:51;29.38;;;20.90;;
33160;SDS011;19522;45.656;11.302;2022-11-18T02:08:18;28.05;;;20.33;;
33160;SDS011;19522;45.656;11.302;2022-11-18T02:10:44;28.77;;;20.25;;
33160;SDS011;19522;45.656;11.302;2022-11-18T02:13:13;29.63;;;21.33;;
33160;SDS011;19522;45.656;11.302;2022-11-18T02:15:47;30.67;;;21.25;;
33160;SDS011;19522;45.656;11.302;2022-11-18T02:18:34;28.70;;;20.50;;
33160;SDS011;19522;45.656;11.302;2022-11-18T02:21:30;29.38;;;19.60;;
33160;SDS011;19522;45.656;11.302;2022-11-18T02:29:44;31.00;;;21.08;;
33160;SDS011;19522;45.656;11.302;2022-11-18T02:32:33;27.10;;;19.38;;
33160;SDS011;19522;45.656;11.302;2022-11-18T02:35:12;26.05;;;18.85;;
33160;SDS011;19522;45.656;11.302;2022-11-18T02:37:44;25.92;;;19.33;;
33160;SDS011;19522;45.656;11.302;2022-11-18T02:42:39;27.58;;;19.23;;
33160;SDS011;19522;45.656;11.302;2022-11-18T02:45:12;27.25;;;19.73;;
33160;SDS011;19522;45.656;11.302;2022-11-18T02:47:41;26.25;;;19.38;;
33160;SDS011;19522;45.656;11.302;2022-11-18T02:50:10;24.70;;;18.52;;
33160;SDS011;19522;45.656;11.302;2022-11-18T02:52:40;27.92;;;18.63;;
33160;SDS011;19522;45.656;11.302;2022-11-18T02:55:09;25.88;;;18.08;;
33160;SDS011;19522;45.656;11.302;2022-11-18T02:57:37;24.83;;;17.48;;
33160;SDS011;19522;45.656;11.302;2022-11-18T03:00:05;28.08;;;19.35;;
33160;SDS011;19522;45.656;11.302;2022-11-18T03:02:38;23.33;;;17.70;;
33160;SDS011;19522;45.656;11.302;2022-11-18T03:05:15;21.45;;;16.25;;
33160;SDS011;19522;45.656;11.302;2022-11-18T03:07:47;21.55;;;15.60;;
33160;SDS011;19522;45.656;11.302;2022-11-18T03:10:19;20.33;;;14.57;;
33160;SDS011;19522;45.656;11.302;2022-11-18T03:21:10;19.05;;;13.15;;
33160;SDS011;19522;45.656;11.302;2022-11-18T03:23:50;17.60;;;12.70;;
33160;SDS011;19522;45.656;11.302;2022-11-18T03:26:28;17.42;;;12.77;;
33160;SDS011;19522;45.656;11.302;2022-11-18T03:31:39;19.52;;;13.20;;
33160;SDS011;19522;45.656;11.302;2022-11-18T03:34:30;20.02;;;15.02;;
33160;SDS011;19522;45.656;11.302;2022-11-18T03:37:10;23.08;;;16.30;;
33160;SDS011;19522;45.656;11.302;2022-11-18T03:39:39;21.13;;;15.07;;
33160;SDS011;19522;45.656;11.302;2022-11-18T03:42:22;18.17;;;13.30;;
33160;SDS011;19522;45.656;11.302;2022-11-18T03:44:54;18.38;;;13.95;;
33160;SDS011;19522;45.656;11.302;2022-11-18T03:47:34;21.55;;;14.35;;
33160;SDS011;19522;45.656;11.302;2022-11-18T03:53:03;19.98;;;13.10;;
33160;SDS011;19522;45.656;11.302;2022-11-18T03:55:33;20.70;;;13.45;;
33160;SDS011;19522;45.656;11.302;2022-11-18T04:00:57;18.25;;;13.73;;
33160;SDS011;19522;45.656;11.302;2022-11-18T04:03:28;20.52;;;14.55;;
33160;SDS011;19522;45.656;11.302;2022-11-18T04:05:55;20.60;;;14.38;;
33160;SDS011;19522;45.656;11.302;2022-11-18T04:08:31;19.85;;;14.05;;
33160;SDS011;19522;45.656;11.302;2022-11-18T04:13:31;20.85;;;15.18;;
33160;SDS011;19522;45.656;11.302;2022-11-18T04:15:59;21.27;;;15.40;;
33160;SDS011;19522;45.656;11.302;2022-11-18T04:18:25;20.95;;;15.18;;
33160;SDS011;19522;45.656;11.302;2022-11-18T04:20:51;20.30;;;14.90;;
33160;SDS011;19522;45.656;11.302;2022-11-18T04:23:17;23.20;;;15.13;;
33160;SDS011;19522;45.656;11.302;2022-11-18T04:32:03;19.63;;;14.23;;
33160;SDS011;19522;45.656;11.302;2022-11-18T04:34:29;21.50;;;15.73;;
33160;SDS011;19522;45.656;11.302;2022-11-18T04:36:55;20.17;;;14.27;;
33160;SDS011;19522;45.656;11.302;2022-11-18T04:39:22;20.10;;;14.70;;
33160;SDS011;19522;45.656;11.302;2022-11-18T04:41:48;20.30;;;14.82;;
33160;SDS011;19522;45.656;11.302;2022-11-18T04:44:23;18.23;;;13.13;;
33160;SDS011;19522;45.656;11.302;2022-11-18T04:46:50;20.25;;;13.77;;
33160;SDS011;19522;45.656;11.302;2022-11-18T04:49:17;18.38;;;12.32;;
33160;SDS011;19522;45.656;11.302;2022-11-18T04:51:43;18.13;;;12.52;;
33160;SDS011;19522;45.656;11.302;2022-11-18T04:54:09;19.70;;;13.43;;
33160;SDS011;19522;45.656;11.302;2022-11-18T04:56:35;18.23;;;12.82;;
33160;SDS011;19522;45.656;11.302;2022-11-18T04:59:05;17.90;;;12.25;;
33160;SDS011;19522;45.656;11.302;2022-11-18T05:01:31;19.30;;;12.73;;
33160;SDS011;19522;45.656;11.302;2022-11-18T05:03:58;18.30;;;12.30;;
33160;SDS011;19522;45.656;11.302;2022-11-18T05:06:25;15.02;;;10.60;;
33160;SDS011;19522;45.656;11.302;2022-11-18T05:08:52;18.42;;;11.88;;
33160;SDS011;19522;45.656;11.302;2022-11-18T05:11:18;15.82;;;11.80;;
33160;SDS011;19522;45.656;11.302;2022-11-18T05:14:03;14.57;;;10.23;;
33160;SDS011;19522;45.656;11.302;2022-11-18T05:16:28;17.05;;;11.20;;
33160;SDS011;19522;45.656;11.302;2022-11-18T05:18:54;16.20;;;10.75;;
33160;SDS011;19522;45.656;11.302;2022-11-18T05:21:19;13.75;;;9.43;;
33160;SDS011;19522;45.656;11.302;2022-11-18T05:23:47;10.95;;;8.85;;
33160;SDS011;19522;45.656;11.302;2022-11-18T05:26:16;13.20;;;9.10;;
33160;SDS011;19522;45.656;11.302;2022-11-18T05:28:44;12.57;;;9.18;;
33160;SDS011;19522;45.656;11.302;2022-11-18T05:31:11;13.23;;;8.70;;
33160;SDS011;19522;45.656;11.302;2022-11-18T05:33:41;15.65;;;9.48;;
33160;SDS011;19522;45.656;11.302;2022-11-18T05:36:11;14.60;;;9.82;;
33160;SDS011;19522;45.656;11.302;2022-11-18T05:38:39;13.15;;;8.63;;
33160;SDS011;19522;45.656;11.302;2022-11-18T05:41:05;12.90;;;8.55;;
33160;SDS011;19522;45.656;11.302;2022-11-18T05:43:31;11.52;;;7.90;;
33160;SDS011;19522;45.656;11.302;2022-11-18T05:45:58;11.43;;;8.43;;
33160;SDS011;19522;45.656;11.302;2022-11-18T05:48:27;10.85;;;8.00;;
33160;SDS011;19522;45.656;11.302;2022-11-18T05:50:54;10.80;;;8.30;;
33160;SDS011;19522;45.656;11.302;2022-11-18T05:53:21;14.05;;;9.55;;
33160;SDS011;19522;45.656;11.302;2022-11-18T05:58:52;20.92;;;14.00;;
33160;SDS011;19522;45.656;11.302;2022-11-18T06:01:19;19.42;;;14.20;;
33160;SDS011;19522;45.656;11.302;2022-11-18T06:03:49;20.52;;;13.60;;
33160;SDS011;19522;45.656;11.302;2022-11-18T06:06:15;15.00;;;10.98;;
33160;SDS011;19522;45.656;11.302;2022-11-18T06:09:06;17.90;;;12.30;;
33160;SDS011;19522;45.656;11.302;2022-11-18T06:11:35;14.20;;;10.80;;
33160;SDS011;19522;45.656;11.302;2022-11-18T06:14:11;15.90;;;9.93;;
33160;SDS011;19522;45.656;11.302;2022-11-18T06:16:46;14.40;;;10.07;;
33160;SDS011;19522;45.656;11.302;2022-11-18T06:19:15;10.95;;;8.45;;
33160;SDS011;19522;45.656;11.302;2022-11-18T06:21:41;11.10;;;8.38;;
33160;SDS011;19522;45.656;11.302;2022-11-18T06:24:08;11.38;;;8.35;;
33160;SDS011;19522;45.656;11.302;2022-11-18T06:26:34;11.57;;;8.38;;
33160;SDS011;19522;45.656;11.302;2022-11-18T06:29:01;11.02;;;8.05;;
33160;SDS011;19522;45.656;11.302;2022-11-18T06:31:27;9.85;;;7.47;;
33160;SDS011;19522;45.656;11.302;2022-11-18T06:33:52;12.55;;;8.52;;
33160;SDS011;19522;45.656;11.302;2022-11-18T06:36:18;10.85;;;7.43;;
33160;SDS011;19522;45.656;11.302;2022-11-18T06:38:43;13.95;;;9.82;;
33160;SDS011;19522;45.656;11.302;2022-11-18T06:41:09;10.52;;;8.27;;
33160;SDS011;19522;45.656;11.302;2022-11-18T06:43:34;10.48;;;7.68;;
33160;SDS011;19522;45.656;11.302;2022-11-18T06:46:03;10.73;;;8.05;;
33160;SDS011;19522;45.656;11.302;2022-11-18T06:48:48;10.90;;;7.28;;
33160;SDS011;19522;45.656;11.302;2022-11-18T06:51:14;10.90;;;7.95;;
33160;SDS011;19522;45.656;11.302;2022-11-18T06:53:40;12.05;;;7.72;;
33160;SDS011;19522;45.656;11.302;2022-11-18T06:56:09;12.68;;;8.85;;
33160;SDS011;19522;45.656;11.302;2022-11-18T06:58:37;10.43;;;8.15;;
33160;SDS011;19522;45.656;11.302;2022-11-18T07:03:36;10.07;;;7.68;;
33160;SDS011;19522;45.656;11.302;2022-11-18T07:06:02;10.60;;;7.43;;
33160;SDS011;19522;45.656;11.302;2022-11-18T07:08:27;10.00;;;7.32;;
33160;SDS011;19522;45.656;11.302;2022-11-18T07:10:53;10.05;;;6.40;;
33160;SDS011;19522;45.656;11.302;2022-11-18T07:13:18;8.05;;;5.90;;
33160;SDS011;19522;45.656;11.302;2022-11-18T07:15:44;7.60;;;5.55;;
33160;SDS011;19522;45.656;11.302;2022-11-18T07:18:09;9.25;;;7.05;;
33160;SDS011;19522;45.656;11.302;2022-11-18T07:20:35;10.60;;;6.65;;
33160;SDS011;19522;45.656;11.302;2022-11-18T07:23:00;11.07;;;7.30;;
33160;SDS011;19522;45.656;11.302;2022-11-18T07:25:26;11.45;;;7.57;;
33160;SDS011;19522;45.656;11.302;2022-11-18T07:27:51;13.50;;;8.40;;
33160;SDS011;19522;45.656;11.302;2022-11-18T07:30:17;16.67;;;8.88;;
33160;SDS011;19522;45.656;11.302;2022-11-18T07:32:42;13.45;;;8.52;;
33160;SDS011;19522;45.656;11.302;2022-11-18T07:35:08;13.38;;;8.48;;
33160;SDS011;19522;45.656;11.302;2022-11-18T07:37:33;16.33;;;9.73;;
33160;SDS011;19522;45.656;11.302;2022-11-18T07:39:59;17.25;;;10.20;;
33160;SDS011;19522;45.656;11.302;2022-11-18T07:42:25;15.13;;;9.85;;
33160;SDS011;19522;45.656;11.302;2022-11-18T07:44:50;16.58;;;10.07;;
33160;SDS011;19522;45.656;11.302;2022-11-18T07:47:16;13.40;;;9.43;;
33160;SDS011;19522;45.656;11.302;2022-11-18T07:49:41;14.25;;;9.85;;
33160;SDS011;19522;45.656;11.302;2022-11-18T07:52:07;14.27;;;9.05;;
33160;SDS011;19522;45.656;11.302;2022-11-18T07:54:32;12.95;;;9.75;;
33160;SDS011;19522;45.656;11.302;2022-11-18T07:56:58;15.18;;;10.13;;
33160;SDS011;19522;45.656;11.302;2022-11-18T07:59:23;13.40;;;9.15;;
33160;SDS011;19522;45.656;11.302;2022-11-18T08:01:49;12.80;;;7.88;;
33160;SDS011;19522;45.656;11.302;2022-11-18T08:04:14;11.48;;;8.48;;
33160;SDS011;19522;45.656;11.302;2022-11-18T08:06:40;16.38;;;8.20;;
33160;SDS011;19522;45.656;11.302;2022-11-18T08:09:06;17.48;;;8.00;;
33160;SDS011;19522;45.656;11.302;2022-11-18T08:11:32;14.07;;;7.40;;
33160;SDS011;19522;45.656;11.302;2022-11-18T08:13:57;13.35;;;7.53;;
33160;SDS011;19522;45.656;11.302;2022-11-18T08:16:23;11.43;;;7.05;;
33160;SDS011;19522;45.656;11.302;2022-11-18T08:18:50;11.02;;;6.40;;
33160;SDS011;19522;45.656;11.302;2022-11-18T08:21:17;10.23;;;6.63;;
33160;SDS011;19522;45.656;11.302;2022-11-18T08:23:48;10.10;;;6.57;;
33160;SDS011;19522;45.656;11.302;2022-11-18T08:26:14;8.38;;;5.82;;
33160;SDS011;19522;45.656;11.302;2022-11-18T08:28:40;10.35;;;6.32;;
33160;SDS011;19522;45.656;11.302;2022-11-18T08:33:40;9.77;;;6.67;;
33160;SDS011;19522;45.656;11.302;2022-11-18T08:36:25;10.73;;;7.72;;
33160;SDS011;19522;45.656;11.302;2022-11-18T08:38:54;10.52;;;7.45;;
33160;SDS011;19522;45.656;11.302;2022-11-18T08:41:24;10.10;;;6.70;;
33160;SDS011;19522;45.656;11.302;2022-11-18T08:46:20;13.60;;;7.72;;
33160;SDS011;19522;45.656;11.302;2022-11-18T08:48:47;14.13;;;8.70;;
33160;SDS011;19522;45.656;11.302;2022-11-18T08:51:13;13.18;;;7.68;;
33160;SDS011;19522;45.656;11.302;2022-11-18T08:53:39;17.45;;;8.70;;
33160;SDS011;19522;45.656;11.302;2022-11-18T08:56:05;17.60;;;8.90;;
33160;SDS011;19522;45.656;11.302;2022-11-18T08:58:31;15.45;;;8.32;;
33160;SDS011;19522;45.656;11.302;2022-11-18T09:00:57;15.40;;;8.95;;
33160;SDS011;19522;45.656;11.302;2022-11-18T09:03:25;16.30;;;8.70;;
33160;SDS011;19522;45.656;11.302;2022-11-18T09:05:51;10.85;;;7.55;;
33160;SDS011;19522;45.656;11.302;2022-11-18T09:08:16;9.38;;;7.13;;
33160;SDS011;19522;45.656;11.302;2022-11-18T09:10:42;10.02;;;6.97;;
33160;SDS011;19522;45.656;11.302;2022-11-18T09:13:10;9.02;;;5.97;;
33160;SDS011;19522;45.656;11.302;2022-11-18T09:15:36;7.32;;;5.70;;
33160;SDS011;19522;45.656;11.302;2022-11-18T09:18:01;6.57;;;4.72;;
33160;SDS011;19522;45.656;11.302;2022-11-18T09:20:27;5.03;;;3.50;;
33160;SDS011;19522;45.656;11.302;2022-11-18T09:22:52;5.72;;;3.88;;
33160;SDS011;19522;45.656;11.302;2022-11-18T09:25:18;6.13;;;4.07;;
33160;SDS011;19522;45.656;11.302;2022-11-18T09:27:43;4.95;;;2.97;;
33160;SDS011;19522;45.656;11.302;2022-11-18T09:30:09;4.32;;;3.47;;
33160;SDS011;19522;45.656;11.302;2022-11-18T09:32:35;4.45;;;3.00;;
33160;SDS011;19522;45.656;11.302;2022-11-18T09:35:00;4.80;;;3.20;;
33160;SDS011;19522;45.656;11.302;2022-11-18T09:37:26;7.43;;;4.63;;
33160;SDS011;19522;45.656;11.302;2022-11-18T09:39:51;7.18;;;4.90;;
33160;SDS011;19522;45.656;11.302;2022-11-18T09:45:04;8.65;;;4.88;;
33160;SDS011;19522;45.656;11.302;2022-11-18T09:47:46;6.65;;;5.03;;
33160;SDS011;19522;45.656;11.302;2022-11-18T09:50:21;6.05;;;5.13;;
33160;SDS011;19522;45.656;11.302;2022-11-18T09:52:59;7.78;;;5.05;;
33160;SDS011;19522;45.656;11.302;2022-11-18T09:55:41;5.70;;;3.03;;
33160;SDS011;19522;45.656;11.302;2022-11-18T09:58:10;9.40;;;6.65;;
33160;SDS011;19522;45.656;11.302;2022-11-18T10:03:41;9.55;;;6.68;;
33160;SDS011;19522;45.656;11.302;2022-11-18T10:06:03;10.18;;;7.38;;
33160;SDS011;19522;45.656;11.302;2022-11-18T10:08:43;13.70;;;8.32;;
33160;SDS011;19522;45.656;11.302;2022-11-18T10:11:20;12.18;;;8.27;;
33160;SDS011;19522;45.656;11.302;2022-11-18T10:14:10;11.57;;;8.15;;
33160;SDS011;19522;45.656;11.302;2022-11-18T10:17:01;9.52;;;7.28;;
33160;SDS011;19522;45.656;11.302;2022-11-18T10:19:55;9.55;;;6.68;;
33160;SDS011;19522;45.656;11.302;2022-11-18T10:22:29;11.57;;;6.55;;
33160;SDS011;19522;45.656;11.302;2022-11-18T10:25:06;6.93;;;5.55;;
33160;SDS011;19522;45.656;11.302;2022-11-18T10:30:18;7.32;;;5.43;;
33160;SDS011;19522;45.656;11.302;2022-11-18T10:32:53;7.65;;;5.70;;
33160;SDS011;19522;45.656;11.302;2022-11-18T10:35:32;8.65;;;6.13;;
33160;SDS011;19522;45.656;11.302;2022-11-18T10:40:26;9.82;;;8.02;;
33160;SDS011;19522;45.656;11.302;2022-11-18T10:42:53;11.02;;;8.75;;
33160;SDS011;19522;45.656;11.302;2022-11-18T10:45:23;14.18;;;10.25;;
33160;SDS011;19522;45.656;11.302;2022-11-18T10:50:45;18.17;;;13.38;;
33160;SDS011;19522;45.656;11.302;2022-11-18T10:56:00;20.90;;;15.55;;
33160;SDS011;19522;45.656;11.302;2022-11-18T10:58:39;21.25;;;14.85;;
33160;SDS011;19522;45.656;11.302;2022-11-18T11:01:28;22.00;;;16.40;;
33160;SDS011;19522;45.656;11.302;2022-11-18T11:11:39;20.38;;;15.00;;
33160;SDS011;19522;45.656;11.302;2022-11-18T11:14:25;20.33;;;14.98;;
33160;SDS011;19522;45.656;11.302;2022-11-18T11:19:21;18.40;;;13.82;;
33160;SDS011;19522;45.656;11.302;2022-11-18T11:21:49;16.77;;;12.95;;
33160;SDS011;19522;45.656;11.302;2022-11-18T11:24:16;18.88;;;13.95;;
33160;SDS011;19522;45.656;11.302;2022-11-18T11:29:32;21.55;;;13.73;;
33160;SDS011;19522;45.656;11.302;2022-11-18T11:37:51;15.10;;;10.55;;
33160;SDS011;19522;45.656;11.302;2022-11-18T11:40:38;13.05;;;9.88;;
33160;SDS011;19522;45.656;11.302;2022-11-18T11:49:09;10.48;;;7.10;;
33160;SDS011;19522;45.656;11.302;2022-11-18T11:52:04;8.50;;;6.22;;
33160;SDS011;19522;45.656;11.302;2022-11-18T11:54:58;13.68;;;9.10;;
33160;SDS011;19522;45.656;11.302;2022-11-18T12:00:16;11.20;;;8.27;;
33160;SDS011;19522;45.656;11.302;2022-11-18T12:02:54;11.00;;;8.15;;
33160;SDS011;19522;45.656;11.302;2022-11-18T12:05:30;12.25;;;8.75;;
33160;SDS011;19522;45.656;11.302;2022-11-18T12:08:00;11.40;;;8.40;;
33160;SDS011;19522;45.656;11.302;2022-11-18T12:14:03;15.75;;;10.55;;
33160;SDS011;19522;45.656;11.302;2022-11-18T12:26:55;14.18;;;10.40;;
33160;SDS011;19522;45.656;11.302;2022-11-18T12:29:22;14.30;;;10.20;;
33160;SDS011;19522;45.656;11.302;2022-11-18T12:31:53;15.55;;;10.52;;
33160;SDS011;19522;45.656;11.302;2022-11-18T12:36:51;14.60;;;9.75;;
33160;SDS011;19522;45.656;11.302;2022-11-18T12:44:45;14.20;;;10.88;;
33160;SDS011;19522;45.656;11.302;2022-11-18T12:50:11;14.45;;;11.25;;
33160;SDS011;19522;45.656;11.302;2022-11-18T12:55:19;18.85;;;10.10;;
33160;SDS011;19522;45.656;11.302;2022-11-18T12:57:54;14.13;;;9.70;;
33160;SDS011;19522;45.656;11.302;2022-11-18T13:02:54;14.93;;;10.35;;
33160;SDS011;19522;45.656;11.302;2022-11-18T13:05:24;13.40;;;9.35;;
33160;SDS011;19522;45.656;11.302;2022-11-18T13:07:58;16.38;;;10.50;;
33160;SDS011;19522;45.656;11.302;2022-11-18T13:15:45;15.18;;;9.57;;
33160;SDS011;19522;45.656;11.302;2022-11-18T13:18:30;13.00;;;9.35;;
33160;SDS011;19522;45.656;11.302;2022-11-18T13:20:57;14.93;;;10.55;;
33160;SDS011;19522;45.656;11.302;2022-11-18T13:23:48;15.13;;;9.68;;
33160;SDS011;19522;45.656;11.302;2022-11-18T13:26:19;14.55;;;9.85;;
33160;SDS011;19522;45.656;11.302;2022-11-18T13:31:53;16.63;;;10.40;;
33160;SDS011;19522;45.656;11.302;2022-11-18T13:34:28;13.05;;;9.95;;
33160;SDS011;19522;45.656;11.302;2022-11-18T13:36:55;16.52;;;9.73;;
33160;SDS011;19522;45.656;11.302;2022-11-18T13:39:27;15.60;;;10.23;;
33160;SDS011;19522;45.656;11.302;2022-11-18T13:44:33;16.80;;;12.32;;
33160;SDS011;19522;45.656;11.302;2022-11-18T13:55:19;19.13;;;14.60;;
33160;SDS011;19522;45.656;11.302;2022-11-18T13:57:48;21.48;;;13.85;;
33160;SDS011;19522;45.656;11.302;2022-11-18T14:00:23;22.85;;;14.07;;
33160;SDS011;19522;45.656;11.302;2022-11-18T14:02:54;26.17;;;16.08;;
33160;SDS011;19522;45.656;11.302;2022-11-18T14:05:22;22.45;;;14.63;;
33160;SDS011;19522;45.656;11.302;2022-11-18T14:07:55;29.10;;;17.27;;
33160;SDS011;19522;45.656;11.302;2022-11-18T14:10:39;24.33;;;17.48;;
33160;SDS011;19522;45.656;11.302;2022-11-18T14:13:27;26.75;;;18.27;;
33160;SDS011;19522;45.656;11.302;2022-11-18T14:15:59;25.70;;;18.55;;
33160;SDS011;19522;45.656;11.302;2022-11-18T14:18:48;27.17;;;18.23;;
33160;SDS011;19522;45.656;11.302;2022-11-18T14:24:12;27.50;;;18.23;;
33160;SDS011;19522;45.656;11.302;2022-11-18T14:26:39;30.25;;;21.00;;
33160;SDS011;19522;45.656;11.302;2022-11-18T14:29:17;36.83;;;22.17;;
33160;SDS011;19522;45.656;11.302;2022-11-18T14:34:38;35.80;;;22.92;;
33160;SDS011;19522;45.656;11.302;2022-11-18T14:37:11;38.20;;;24.48;;
33160;SDS011;19522;45.656;11.302;2022-11-18T14:39:38;35.23;;;23.47;;
33160;SDS011;19522;45.656;11.302;2022-11-18T14:42:04;32.53;;;23.02;;
33160;SDS011;19522;45.656;11.302;2022-11-18T14:44:34;35.10;;;24.08;;
33160;SDS011;19522;45.656;11.302;2022-11-18T14:49:56;34.83;;;25.17;;
33160;SDS011;19522;45.656;11.302;2022-11-18T14:52:21;36.60;;;23.38;;
33160;SDS011;19522;45.656;11.302;2022-11-18T14:54:47;35.28;;;23.88;;
33160;SDS011;19522;45.656;11.302;2022-11-18T14:57:15;36.65;;;24.30;;
33160;SDS011;19522;45.656;11.302;2022-11-18T14:59:41;41.17;;;26.52;;
33160;SDS011;19522;45.656;11.302;2022-11-18T15:02:14;42.38;;;26.70;;
33160;SDS011;19522;45.656;11.302;2022-11-18T15:04:45;42.78;;;26.45;;
33160;SDS011;19522;45.656;11.302;2022-11-18T15:07:12;39.72;;;25.45;;
33160;SDS011;19522;45.656;11.302;2022-11-18T15:09:39;41.92;;;25.52;;
33160;SDS011;19522;45.656;11.302;2022-11-18T15:12:05;35.35;;;24.00;;
33160;SDS011;19522;45.656;11.302;2022-11-18T15:14:31;23.40;;;16.38;;
33160;SDS011;19522;45.656;11.302;2022-11-18T15:16:56;19.65;;;14.10;;
33160;SDS011;19522;45.656;11.302;2022-11-18T15:19:22;18.60;;;12.57;;
33160;SDS011;19522;45.656;11.302;2022-11-18T15:21:47;17.13;;;11.95;;
33160;SDS011;19522;45.656;11.302;2022-11-18T15:24:13;17.77;;;11.68;;
33160;SDS011;19522;45.656;11.302;2022-11-18T15:26:43;14.50;;;10.80;;
33160;SDS011;19522;45.656;11.302;2022-11-18T15:29:20;16.25;;;10.65;;
33160;SDS011;19522;45.656;11.302;2022-11-18T15:31:47;16.15;;;11.00;;
33160;SDS011;19522;45.656;11.302;2022-11-18T15:34:13;15.45;;;11.30;;
33160;SDS011;19522;45.656;11.302;2022-11-18T15:36:39;16.63;;;11.13;;
33160;SDS011;19522;45.656;11.302;2022-11-18T15:39:05;16.23;;;12.10;;
33160;SDS011;19522;45.656;11.302;2022-11-18T15:41:31;19.00;;;11.32;;
33160;SDS011;19522;45.656;11.302;2022-11-18T15:43:58;16.80;;;10.88;;
33160;SDS011;19522;45.656;11.302;2022-11-18T15:46:25;14.82;;;10.13;;
33160;SDS011;19522;45.656;11.302;2022-11-18T15:48:52;15.23;;;10.80;;
33160;SDS011;19522;45.656;11.302;2022-11-18T15:51:18;15.48;;;10.90;;
33160;SDS011;19522;45.656;11.302;2022-11-18T15:53:45;19.13;;;11.82;;
33160;SDS011;19522;45.656;11.302;2022-11-18T15:58:55;15.43;;;11.52;;
33160;SDS011;19522;45.656;11.302;2022-11-18T16:01:26;18.02;;;12.50;;
33160;SDS011;19522;45.656;11.302;2022-11-18T16:03:56;21.30;;;15.23;;
33160;SDS011;19522;45.656;11.302;2022-11-18T16:06:21;21.50;;;14.13;;
33160;SDS011;19522;45.656;11.302;2022-11-18T16:08:47;24.20;;;16.60;;
33160;SDS011;19522;45.656;11.302;2022-11-18T16:11:13;25.25;;;15.90;;
33160;SDS011;19522;45.656;11.302;2022-11-18T16:14:03;25.85;;;16.67;;
33160;SDS011;19522;45.656;11.302;2022-11-18T16:16:30;26.02;;;16.33;;
33160;SDS011;19522;45.656;11.302;2022-11-18T16:18:57;27.15;;;16.60;;
33160;SDS011;19522;45.656;11.302;2022-11-18T16:21:24;24.00;;;16.75;;
33160;SDS011;19522;45.656;11.302;2022-11-18T16:23:55;18.33;;;14.55;;
33160;SDS011;19522;45.656;11.302;2022-11-18T16:26:22;19.58;;;13.32;;
33160;SDS011;19522;45.656;11.302;2022-11-18T16:28:48;20.25;;;14.02;;
33160;SDS011;19522;45.656;11.302;2022-11-18T16:31:17;20.63;;;13.70;;
33160;SDS011;19522;45.656;11.302;2022-11-18T16:37:03;22.50;;;17.30;;
33160;SDS011;19522;45.656;11.302;2022-11-18T16:39:30;20.50;;;14.75;;
33160;SDS011;19522;45.656;11.302;2022-11-18T16:41:56;22.05;;;15.02;;
33160;SDS011;19522;45.656;11.302;2022-11-18T16:44:23;23.33;;;16.25;;
33160;SDS011;19522;45.656;11.302;2022-11-18T16:46:49;22.10;;;16.67;;
33160;SDS011;19522;45.656;11.302;2022-11-18T16:49:16;19.90;;;15.13;;
33160;SDS011;19522;45.656;11.302;2022-11-18T16:51:48;21.92;;;13.82;;
33160;SDS011;19522;45.656;11.302;2022-11-18T16:54:22;19.33;;;13.52;;
33160;SDS011;19522;45.656;11.302;2022-11-18T16:56:48;21.33;;;14.18;;
33160;SDS011;19522;45.656;11.302;2022-11-18T16:59:20;20.25;;;14.27;;
33160;SDS011;19522;45.656;11.302;2022-11-18T17:01:48;22.55;;;16.60;;
33160;SDS011;19522;45.656;11.302;2022-11-18T17:04:15;20.63;;;15.48;;